createdAt,value
2018-03-06T00:00:36.960Z,78.72
2018-03-06T00:03:04.356Z,79.58
2018-03-06T00:05:31.769Z,78.71
2018-03-06T00:07:59.160Z,79.47
2018-03-06T00:10:26.585Z,80.07
2018-03-06T00:12:53.988Z,80.12
2018-03-06T00:15:21.396Z,80.09
2018-03-06T00:17:48.812Z,81.17
2018-03-06T00:20:16.219Z,80.72
2018-03-06T00:22:43.631Z,80.53
2018-03-06T00:25:11.027Z,81.02
2018-03-06T00:27:38.437Z,81.80
2018-03-06T00:30:05.835Z,82.18
2018-03-06T00:32:33.242Z,82.38
2018-03-06T00:35:00.653Z,82.49
2018-03-06T00:37:28.078Z,82.69
2018-03-06T00:39:55.485Z,82.79
2018-03-06T00:42:22.900Z,82.70
2018-03-06T00:44:50.298Z,82.48
2018-03-06T00:47:17.714Z,82.33
2018-03-06T00:49:45.117Z,82.19
2018-03-06T00:52:12.530Z,82.17
2018-03-06T00:54:39.932Z,82.11
2018-03-06T00:57:07.346Z,82.20
2018-03-06T00:59:34.753Z,82.34
2018-03-06T01:02:02.172Z,82.16
2018-03-06T01:04:29.564Z,81.89
2018-03-06T01:06:56.980Z,82.17
2018-03-06T01:09:24.381Z,81.79
2018-03-06T01:11:51.841Z,81.52
2018-03-06T01:14:19.250Z,81.16
2018-03-06T01:16:46.653Z,81.81
2018-03-06T01:19:14.069Z,82.52
2018-03-06T01:21:41.476Z,82.58
2018-03-06T01:24:08.888Z,82.78
2018-03-06T01:26:36.301Z,82.61
2018-03-06T01:29:03.703Z,83.00
2018-03-06T01:31:31.141Z,83.11
2018-03-06T01:33:58.518Z,82.79
2018-03-06T01:36:25.926Z,82.67
2018-03-06T01:38:53.333Z,82.54
2018-03-06T01:41:20.739Z,82.11
2018-03-06T01:43:48.144Z,82.09
2018-03-06T01:46:15.550Z,82.09
2018-03-06T01:48:42.962Z,82.16
2018-03-06T01:51:10.365Z,82.45
2018-03-06T01:53:37.773Z,82.45
2018-03-06T01:56:05.182Z,82.52
2018-03-06T01:58:32.587Z,82.65
2018-03-06T02:00:59.998Z,82.87
2018-03-06T02:03:27.417Z,83.41
2018-03-06T02:05:54.815Z,83.84
2018-03-06T02:08:22.633Z,83.75
2018-03-06T02:10:50.037Z,83.55
2018-03-06T02:13:17.456Z,83.62
2018-03-06T02:15:44.864Z,83.54
2018-03-06T02:18:12.271Z,84.18
2018-03-06T02:20:39.694Z,84.00
2018-03-06T02:23:07.102Z,83.40
2018-03-06T02:25:34.518Z,83.68
2018-03-06T02:28:01.914Z,83.89
2018-03-06T02:30:29.326Z,84.02
2018-03-06T02:32:56.724Z,84.20
2018-03-06T02:35:24.144Z,84.24
2018-03-06T02:37:51.565Z,84.24
2018-03-06T02:40:18.977Z,83.97
2018-03-06T02:42:46.373Z,83.96
2018-03-06T02:45:13.777Z,83.84
2018-03-06T02:47:41.186Z,84.21
2018-03-06T02:50:08.597Z,84.50
2018-03-06T02:52:35.991Z,84.34
2018-03-06T02:55:03.764Z,83.58
2018-03-06T02:57:31.166Z,83.34
2018-03-06T02:59:58.577Z,83.96
2018-03-06T03:02:25.977Z,84.17
2018-03-06T03:04:53.399Z,84.50
2018-03-06T03:07:20.802Z,84.96
2018-03-06T03:09:48.231Z,85.50
2018-03-06T03:12:15.623Z,85.73
2018-03-06T03:14:43.041Z,86.05
2018-03-06T03:17:10.443Z,86.06
2018-03-06T03:19:37.847Z,86.21
2018-03-06T03:22:05.264Z,86.18
2018-03-06T03:24:32.676Z,86.85
2018-03-06T03:27:00.089Z,86.89
2018-03-06T03:29:27.494Z,86.95
2018-03-06T03:31:54.912Z,87.20
2018-03-06T03:34:22.319Z,87.28
2018-03-06T03:36:49.738Z,87.34
2018-03-06T03:39:17.647Z,87.35
2018-03-06T03:41:45.059Z,87.41
2018-03-06T03:44:12.468Z,87.48
2018-03-06T03:46:39.880Z,87.46
2018-03-06T03:49:07.281Z,87.53
2018-03-06T03:51:34.705Z,87.94
2018-03-06T03:54:02.102Z,87.95
2018-03-06T03:56:29.522Z,88.01
2018-03-06T03:58:56.929Z,87.85
2018-03-06T04:01:24.341Z,87.79
2018-03-06T04:03:51.746Z,87.93
2018-03-06T04:06:19.152Z,88.08
2018-03-06T04:08:46.552Z,87.99
2018-03-06T04:11:13.973Z,88.17
2018-03-06T04:13:41.797Z,87.99
2018-03-06T04:16:09.245Z,88.04
2018-03-06T04:18:36.650Z,88.30
2018-03-06T04:21:04.073Z,88.29
2018-03-06T04:23:32.449Z,88.35
2018-03-06T04:25:59.872Z,88.43
2018-03-06T04:28:27.277Z,88.24
2018-03-06T04:30:54.675Z,88.27
2018-03-06T04:33:22.089Z,88.37
2018-03-06T04:35:49.492Z,88.85
2018-03-06T04:38:16.903Z,88.68
2018-03-06T04:40:44.309Z,89.01
2018-03-06T04:43:11.731Z,89.63
2018-03-06T04:45:39.141Z,89.85
2018-03-06T04:48:06.556Z,89.83
2018-03-06T04:50:33.971Z,89.68
2018-03-06T04:53:01.394Z,89.58
2018-03-06T04:55:28.797Z,89.43
2018-03-06T04:57:56.212Z,89.41
2018-03-06T05:00:23.623Z,89.20
2018-03-06T05:02:51.042Z,89.27
2018-03-06T05:05:18.448Z,89.34
2018-03-06T05:07:45.873Z,89.53
2018-03-06T05:10:13.278Z,89.61
2018-03-06T05:12:40.696Z,89.61
2018-03-06T05:15:08.105Z,89.46
2018-03-06T05:17:35.521Z,88.78
2018-03-06T05:20:02.923Z,88.30
2018-03-06T05:22:30.333Z,87.93
2018-03-06T05:24:57.752Z,88.21
2018-03-06T05:27:25.165Z,88.39
2018-03-06T05:29:53.289Z,88.64
2018-03-06T05:32:20.705Z,88.63
2018-03-06T05:34:48.113Z,88.70
2018-03-06T05:37:15.524Z,88.94
2018-03-06T05:39:43.936Z,89.04
2018-03-06T05:42:11.340Z,89.34
2018-03-06T05:44:38.761Z,89.41
2018-03-06T05:47:06.168Z,89.58
2018-03-06T05:49:33.602Z,89.68
2018-03-06T05:52:01.010Z,90.26
2018-03-06T05:54:29.057Z,89.87
2018-03-06T05:56:56.457Z,89.68
2018-03-06T05:59:23.879Z,89.69
2018-03-06T06:01:51.297Z,89.68
2018-03-06T06:04:18.721Z,89.81
2018-03-06T06:06:46.134Z,89.87
2018-03-06T06:09:13.557Z,89.94
2018-03-06T06:11:40.957Z,90.22
2018-03-06T06:14:08.393Z,90.29
2018-03-06T06:16:35.814Z,90.56
2018-03-06T06:19:03.241Z,90.69
2018-03-06T06:21:30.664Z,90.71
2018-03-06T06:23:58.092Z,90.62
2018-03-06T06:26:25.502Z,90.58
2018-03-06T06:28:52.909Z,90.37
2018-03-06T06:31:20.320Z,90.09
2018-03-06T06:33:47.735Z,89.73
2018-03-06T06:36:15.140Z,89.30
2018-03-06T06:38:42.570Z,88.90
2018-03-06T06:41:09.968Z,88.69
2018-03-06T06:43:37.379Z,88.40
2018-03-06T06:46:04.797Z,87.94
2018-03-06T06:48:32.206Z,87.48
2018-03-06T06:50:59.608Z,87.30
2018-03-06T06:53:27.317Z,87.10
2018-03-06T06:55:54.740Z,86.88
2018-03-06T06:58:22.145Z,86.30
2018-03-06T07:00:49.554Z,86.17
2018-03-06T07:03:16.956Z,85.41
2018-03-06T07:05:44.379Z,86.37
2018-03-06T07:08:11.790Z,86.23
2018-03-06T07:10:39.207Z,85.23
2018-03-06T07:13:06.660Z,83.67
2018-03-06T07:15:34.068Z,84.59
2018-03-06T07:18:01.489Z,84.16
2018-03-06T07:20:28.892Z,81.92
2018-03-06T07:22:56.302Z,81.56
2018-03-06T07:25:23.737Z,81.68
2018-03-06T07:27:51.134Z,81.62
2018-03-06T07:30:18.556Z,83.23
2018-03-06T07:32:45.964Z,83.43
2018-03-06T07:35:13.373Z,83.10
2018-03-06T07:37:40.798Z,82.66
2018-03-06T07:40:08.210Z,81.79
2018-03-06T07:42:35.621Z,81.28
2018-03-06T07:45:03.034Z,81.10
2018-03-06T07:47:30.446Z,80.70
2018-03-06T07:49:57.859Z,80.54
2018-03-06T07:52:25.264Z,79.76
2018-03-06T07:54:52.677Z,78.89
2018-03-06T07:57:20.081Z,77.98
2018-03-06T07:59:47.505Z,78.34
2018-03-06T08:02:14.901Z,77.54
2018-03-06T08:04:42.301Z,77.38
2018-03-06T08:07:09.718Z,76.30
2018-03-06T08:09:37.133Z,76.18
2018-03-06T08:12:04.543Z,76.81
2018-03-06T08:14:31.953Z,76.09
2018-03-06T08:16:59.360Z,76.09
2018-03-06T08:19:26.761Z,76.33
2018-03-06T08:21:54.176Z,75.87
2018-03-06T08:24:21.581Z,75.18
2018-03-06T08:26:48.994Z,75.36
2018-03-06T08:29:16.421Z,75.10
2018-03-06T08:31:43.837Z,75.64
2018-03-06T08:34:11.244Z,77.02
2018-03-06T08:36:38.652Z,76.98
2018-03-06T08:39:06.063Z,77.82
2018-03-06T08:41:33.492Z,77.38
2018-03-06T08:44:00.894Z,77.15
2018-03-06T08:46:28.310Z,76.80
2018-03-06T08:48:55.719Z,77.47
2018-03-06T08:51:24.058Z,77.99
2018-03-06T08:53:51.463Z,77.51
2018-03-06T08:56:18.872Z,76.61
2018-03-06T08:58:46.286Z,75.48
2018-03-06T09:01:13.705Z,75.66
2018-03-06T09:03:41.127Z,75.32
2018-03-06T09:06:08.517Z,74.88
2018-03-06T09:08:35.936Z,75.05
2018-03-06T09:11:03.341Z,74.58
2018-03-06T09:13:30.761Z,73.32
2018-03-06T09:15:58.185Z,73.92
2018-03-06T09:18:25.593Z,73.24
2018-03-06T09:20:53.009Z,73.05
2018-03-06T09:23:20.417Z,73.05
2018-03-06T09:25:47.821Z,73.08
2018-03-06T09:28:15.246Z,73.60
2018-03-06T09:30:42.651Z,73.72
2018-03-06T09:33:10.066Z,73.40
2018-03-06T09:35:37.468Z,72.69
2018-03-06T09:38:04.883Z,72.79
2018-03-06T09:40:32.292Z,72.47
2018-03-06T09:42:59.704Z,72.46
2018-03-06T09:45:27.109Z,72.45
2018-03-06T09:47:54.524Z,71.88
2018-03-06T09:50:21.929Z,70.83
2018-03-06T09:52:49.358Z,70.55
2018-03-06T09:55:16.762Z,70.19
2018-03-06T09:57:44.182Z,70.92
2018-03-06T10:00:11.594Z,70.08
2018-03-06T10:02:39.010Z,69.36
2018-03-06T10:05:06.421Z,69.63
2018-03-06T10:07:33.853Z,68.51
2018-03-06T10:10:01.274Z,68.20
2018-03-06T10:12:28.685Z,68.85
2018-03-06T10:14:56.105Z,68.95
2018-03-06T10:17:23.525Z,67.31
2018-03-06T10:19:50.936Z,66.13
2018-03-06T10:22:18.357Z,66.34
2018-03-06T10:24:45.828Z,62.97
2018-03-06T10:27:13.278Z,64.45
2018-03-06T10:29:40.697Z,64.07
2018-03-06T10:32:08.105Z,64.70
2018-03-06T10:34:35.535Z,62.50
2018-03-06T10:37:02.941Z,61.99
2018-03-06T10:39:30.382Z,62.27
2018-03-06T10:41:57.772Z,62.13
2018-03-06T10:44:25.219Z,61.69
2018-03-06T10:46:52.613Z,61.67
2018-03-06T10:49:20.038Z,62.21
2018-03-06T10:51:47.452Z,61.70
2018-03-06T10:54:14.870Z,63.03
2018-03-06T10:56:42.288Z,61.73
2018-03-06T10:59:09.798Z,60.89
2018-03-06T11:01:37.192Z,61.08
2018-03-06T11:04:04.620Z,59.89
2018-03-06T11:06:33.199Z,58.20
2018-03-06T11:09:00.614Z,57.32
2018-03-06T11:11:28.062Z,58.22
2018-03-06T11:13:55.488Z,58.42
2018-03-06T11:16:22.910Z,59.93
2018-03-06T11:18:50.318Z,59.55
2018-03-06T11:21:17.737Z,59.65
2018-03-06T11:23:45.158Z,59.28
2018-03-06T11:26:12.572Z,57.35
2018-03-06T11:28:39.985Z,58.37
2018-03-06T11:31:07.400Z,58.41
2018-03-06T11:33:34.835Z,58.21
2018-03-06T11:36:02.252Z,57.89
2018-03-06T11:38:29.656Z,57.92
2018-03-06T11:40:57.090Z,56.81
2018-03-06T11:43:24.518Z,58.50
2018-03-06T11:45:51.942Z,57.56
2018-03-06T11:48:19.349Z,58.50
2018-03-06T11:50:46.774Z,58.02
2018-03-06T11:53:14.195Z,57.46
2018-03-06T11:55:41.601Z,55.71
2018-03-06T11:58:09.014Z,55.66
2018-03-06T12:00:36.429Z,57.08
2018-03-06T12:03:03.840Z,58.89
2018-03-06T12:05:31.261Z,57.67
2018-03-06T12:07:58.673Z,56.56
2018-03-06T12:10:26.093Z,56.34
2018-03-06T12:12:53.515Z,56.61
2018-03-06T12:15:20.936Z,55.77
2018-03-06T12:17:48.356Z,55.30
2018-03-06T12:20:15.860Z,56.09
2018-03-06T12:22:43.671Z,54.83
2018-03-06T12:25:11.080Z,54.14
2018-03-06T12:27:38.499Z,54.93
2018-03-06T12:30:05.990Z,54.14
2018-03-06T12:32:33.345Z,53.25
2018-03-06T12:35:00.771Z,55.48
2018-03-06T12:37:28.181Z,57.67
2018-03-06T12:39:55.594Z,56.09
2018-03-06T12:42:23.010Z,55.38
2018-03-06T12:44:50.430Z,55.89
2018-03-06T12:47:17.845Z,56.43
2018-03-06T12:49:45.258Z,55.75
2018-03-06T12:52:12.682Z,54.95
2018-03-06T12:54:40.134Z,55.39
2018-03-06T12:57:07.510Z,56.65
2018-03-06T12:59:34.929Z,56.93
2018-03-06T13:02:02.354Z,56.38
2018-03-06T13:04:30.604Z,55.91
2018-03-06T13:06:58.075Z,56.16
2018-03-06T13:09:25.486Z,55.91
2018-03-06T13:11:52.916Z,55.79
2018-03-06T13:14:21.215Z,55.33
2018-03-06T13:16:48.634Z,55.35
2018-03-06T13:19:16.041Z,54.94
2018-03-06T13:21:43.473Z,54.29
2018-03-06T13:24:11.313Z,53.58
2018-03-06T13:26:38.728Z,54.28
2018-03-06T13:29:06.150Z,53.33
2018-03-06T13:31:33.572Z,53.44
2018-03-06T13:34:01.030Z,53.93
2018-03-06T13:36:28.412Z,54.31
2018-03-06T13:38:55.820Z,54.37
2018-03-06T13:41:23.240Z,54.92
2018-03-06T13:43:50.658Z,55.54
2018-03-06T13:46:18.062Z,55.34
2018-03-06T13:48:45.484Z,55.77
2018-03-06T13:51:12.904Z,55.16
2018-03-06T13:53:40.376Z,54.93
2018-03-06T13:56:07.789Z,55.39
2018-03-06T13:58:35.216Z,56.61
2018-03-06T14:01:02.629Z,56.14
2018-03-06T14:03:30.056Z,56.46
2018-03-06T14:05:57.465Z,55.86
2018-03-06T14:08:24.895Z,56.02
2018-03-06T14:10:52.304Z,56.66
2018-03-06T14:13:19.729Z,56.56
2018-03-06T14:15:47.146Z,56.27
2018-03-06T14:18:14.570Z,55.83
2018-03-06T14:20:41.973Z,56.19
2018-03-06T14:23:09.470Z,57.72
2018-03-06T14:25:37.349Z,57.41
2018-03-06T14:28:04.784Z,56.12
2018-03-06T14:30:32.190Z,55.34
2018-03-06T14:32:59.616Z,55.69
2018-03-06T14:35:27.038Z,56.73
2018-03-06T14:37:54.460Z,56.58
2018-03-06T14:40:21.869Z,57.07
2018-03-06T14:42:49.301Z,56.41
2018-03-06T14:45:16.731Z,56.01
2018-03-06T14:47:44.147Z,56.18
2018-03-06T14:50:11.562Z,56.95
2018-03-06T14:52:38.981Z,56.86
2018-03-06T14:55:06.930Z,56.01
2018-03-06T14:57:34.342Z,55.63
2018-03-06T15:00:01.753Z,56.43
2018-03-06T15:02:29.447Z,57.72
2018-03-06T15:04:56.857Z,57.19
2018-03-06T15:07:24.274Z,56.91
2018-03-06T15:09:51.703Z,56.43
2018-03-06T15:12:19.114Z,56.74
2018-03-06T15:14:46.537Z,57.57
2018-03-06T15:17:13.961Z,58.07
2018-03-06T15:19:41.698Z,58.21
2018-03-06T15:22:09.114Z,58.41
2018-03-06T15:24:36.534Z,58.21
2018-03-06T15:27:03.952Z,58.12
2018-03-06T15:29:31.375Z,57.34
2018-03-06T15:31:58.792Z,57.52
2018-03-06T15:34:26.212Z,57.40
2018-03-06T15:36:53.636Z,57.24
2018-03-06T15:39:21.066Z,57.08
2018-03-06T15:41:48.477Z,57.13
2018-03-06T15:44:15.906Z,56.85
2018-03-06T15:46:43.330Z,57.32
2018-03-06T15:49:10.757Z,56.82
2018-03-06T15:51:38.169Z,57.38
2018-03-06T15:54:05.602Z,57.80
2018-03-06T15:56:33.003Z,58.33
2018-03-06T15:59:00.432Z,58.54
2018-03-06T16:01:27.853Z,58.45
2018-03-06T16:03:55.277Z,58.11
2018-03-06T16:06:22.684Z,58.55
2018-03-06T16:08:50.101Z,57.79
2018-03-06T16:11:17.544Z,57.75
2018-03-06T16:13:44.968Z,57.85
2018-03-06T16:16:12.375Z,58.58
2018-03-06T16:18:39.802Z,58.52
2018-03-06T16:21:07.218Z,58.65
2018-03-06T16:23:34.637Z,58.85
2018-03-06T16:26:02.045Z,60.46
2018-03-06T16:28:29.448Z,59.11
2018-03-06T16:30:56.873Z,59.47
2018-03-06T16:33:24.287Z,59.97
2018-03-06T16:35:51.712Z,61.43
2018-03-06T16:38:19.128Z,60.88
2018-03-06T16:40:46.555Z,61.19
2018-03-06T16:43:13.961Z,60.83
2018-03-06T16:45:41.386Z,61.63
2018-03-06T16:48:08.803Z,62.40
2018-03-06T16:50:36.228Z,62.17
2018-03-06T16:53:03.638Z,62.46
2018-03-06T16:55:31.066Z,62.72
2018-03-06T16:57:58.470Z,63.17
2018-03-06T17:00:25.889Z,63.69
2018-03-06T17:02:53.293Z,63.99
2018-03-06T17:05:20.709Z,64.40
2018-03-06T17:07:48.128Z,64.77
2018-03-06T17:10:15.546Z,64.83
2018-03-06T17:12:42.952Z,65.56
2018-03-06T17:15:10.365Z,65.09
2018-03-06T17:17:37.780Z,65.39
2018-03-06T17:20:05.196Z,65.44
2018-03-06T17:22:32.607Z,65.88
2018-03-06T17:25:00.026Z,66.66
2018-03-06T17:27:27.434Z,66.93
2018-03-06T17:29:54.834Z,67.73
2018-03-06T17:32:22.253Z,68.01
2018-03-06T17:34:49.664Z,68.72
2018-03-06T17:37:17.092Z,69.02
2018-03-06T17:39:44.501Z,68.83
2018-03-06T17:42:11.908Z,69.42
2018-03-06T17:44:39.318Z,68.96
2018-03-06T17:47:06.736Z,69.52
2018-03-06T17:49:34.141Z,70.09
2018-03-06T17:52:01.557Z,68.85
2018-03-06T17:54:28.961Z,69.87
2018-03-06T17:56:57.085Z,69.78
2018-03-06T17:59:24.497Z,69.65
2018-03-06T18:01:51.922Z,70.44
2018-03-06T18:04:19.320Z,70.30
2018-03-06T18:06:46.783Z,70.38
2018-03-06T18:09:14.192Z,71.36
2018-03-06T18:11:41.607Z,71.30
2018-03-06T18:14:09.014Z,70.76
2018-03-06T18:16:36.431Z,70.86
2018-03-06T18:19:03.835Z,71.09
2018-03-06T18:21:31.254Z,71.23
2018-03-06T18:23:58.656Z,71.43
2018-03-06T18:26:26.073Z,71.82
2018-03-06T18:28:53.480Z,72.00
2018-03-06T18:31:20.896Z,72.29
2018-03-06T18:33:48.300Z,72.47
2018-03-06T18:36:15.725Z,72.85
2018-03-06T18:38:43.138Z,72.96
2018-03-06T18:41:10.542Z,73.00
2018-03-06T18:43:37.954Z,72.69
2018-03-06T18:46:05.354Z,72.87
2018-03-06T18:48:32.782Z,73.11
2018-03-06T18:51:11.885Z,73.39
2018-03-06T18:53:39.288Z,73.53
2018-03-06T18:56:06.693Z,73.93
2018-03-06T18:58:34.813Z,73.75
2018-03-06T19:01:14.133Z,73.64
2018-03-06T19:03:53.282Z,73.90
2018-03-06T19:09:23.661Z,73.65
2018-03-06T19:11:51.085Z,73.75
2018-03-06T19:14:18.486Z,73.60
2018-03-06T19:16:45.896Z,73.59
2018-03-06T19:19:13.313Z,74.03
2018-03-06T19:21:40.716Z,74.03
2018-03-06T19:24:08.138Z,74.63
2018-03-06T19:26:35.649Z,75.23
2018-03-06T19:29:03.079Z,75.49
2018-03-06T19:31:30.485Z,75.37
2018-03-06T19:33:57.901Z,75.93
2018-03-06T19:36:25.322Z,76.34
2018-03-06T19:38:52.741Z,76.39
2018-03-06T19:41:20.158Z,76.13
2018-03-06T19:43:47.566Z,76.62
2018-03-06T19:46:14.966Z,77.09
2018-03-06T19:48:42.384Z,76.81
2018-03-06T19:51:09.795Z,77.16
2018-03-06T19:53:37.200Z,78.15
2018-03-06T19:56:04.617Z,77.61
2018-03-06T19:58:32.033Z,77.74
2018-03-06T20:00:59.440Z,77.38
2018-03-06T20:03:26.855Z,77.73
2018-03-06T20:05:54.257Z,77.73
2018-03-06T20:08:21.689Z,77.66
2018-03-06T20:10:49.100Z,78.10
2018-03-06T20:13:16.518Z,78.89
2018-03-06T20:15:44.567Z,79.49
2018-03-06T20:18:12.005Z,79.27
2018-03-06T20:20:39.459Z,79.00
2018-03-06T20:23:06.881Z,79.42
2018-03-06T20:25:39.938Z,79.43
2018-03-06T20:28:07.353Z,79.49
2018-03-06T20:30:40.506Z,79.56
2018-03-06T20:33:17.381Z,79.44
2018-03-06T20:35:44.788Z,79.43
2018-03-06T20:38:17.832Z,79.50
2018-03-06T20:40:45.242Z,79.94
2018-03-06T20:43:12.650Z,79.49
2018-03-06T20:45:45.702Z,79.90
2018-03-06T20:48:13.109Z,79.51
2018-03-06T20:50:40.533Z,79.90
2018-03-06T20:53:13.521Z,79.95
2018-03-06T20:55:40.939Z,80.21
2018-03-06T20:58:08.341Z,79.90
2018-03-06T21:00:35.761Z,80.39
2018-03-06T21:03:03.165Z,81.01
2018-03-06T21:05:30.594Z,81.79
2018-03-06T21:07:57.997Z,81.68
2018-03-06T21:10:25.720Z,81.57
2018-03-06T21:12:53.116Z,82.08
2018-03-06T21:15:20.533Z,82.05
2018-03-06T21:17:47.936Z,82.09
2018-03-06T21:20:15.349Z,82.04
2018-03-06T21:22:42.753Z,82.20
2018-03-06T21:25:10.167Z,81.58
2018-03-06T21:27:37.641Z,81.93
2018-03-06T21:30:05.058Z,81.88
2018-03-06T21:32:32.462Z,81.74
2018-03-06T21:34:59.892Z,82.02
2018-03-06T21:37:27.282Z,82.22
2018-03-06T21:39:54.693Z,83.05
2018-03-06T21:42:22.095Z,82.81
2018-03-06T21:44:49.502Z,82.77
2018-03-06T21:47:16.910Z,82.99
2018-03-06T21:49:44.326Z,82.86
2018-03-06T21:52:11.722Z,82.79
2018-03-06T21:54:39.137Z,82.73
2018-03-06T21:57:06.558Z,83.08
2018-03-06T22:02:40.504Z,83.96
2018-03-06T22:05:07.933Z,84.30
2018-03-06T22:07:35.433Z,84.38
2018-03-06T22:10:02.888Z,84.46
2018-03-06T22:12:30.302Z,84.02
2018-03-06T22:14:57.817Z,83.48
2018-03-06T22:17:25.266Z,84.03
2018-03-06T22:19:52.685Z,84.59
2018-03-06T22:22:20.133Z,84.87
2018-03-06T22:24:47.604Z,85.10
2018-03-06T22:27:15.055Z,85.09
2018-03-06T22:29:42.555Z,84.76
2018-03-06T22:32:09.992Z,84.95
2018-03-06T22:34:37.500Z,85.04
2018-03-06T22:37:04.927Z,85.05
2018-03-06T22:39:32.343Z,84.83
2018-03-06T22:41:59.826Z,84.54
2018-03-06T22:44:27.247Z,84.78
2018-03-06T22:46:54.674Z,84.97
2018-03-06T22:49:22.178Z,84.99
2018-03-06T22:51:49.606Z,84.83
2018-03-06T22:54:17.024Z,84.78
2018-03-06T22:56:44.446Z,84.56
2018-03-06T22:59:11.903Z,84.71
2018-03-06T23:01:39.430Z,84.62
2018-03-06T23:04:06.858Z,84.54
2018-03-06T23:06:34.287Z,84.38
2018-03-06T23:09:01.751Z,84.36
2018-03-06T23:11:29.177Z,84.32
2018-03-06T23:13:56.594Z,84.25
2018-03-06T23:16:24.045Z,84.24
2018-03-06T23:18:52.146Z,84.00
2018-03-06T23:21:19.572Z,83.85
2018-03-06T23:23:46.986Z,83.63
2018-03-06T23:26:14.410Z,82.97
2018-03-06T23:28:41.901Z,82.80
2018-03-06T23:31:09.342Z,82.92
2018-03-06T23:33:37.182Z,82.46
2018-03-06T23:36:04.930Z,82.30
2018-03-06T23:38:32.944Z,82.24
2018-03-06T23:41:00.390Z,82.13
2018-03-06T23:43:27.807Z,81.81
2018-03-06T23:45:55.219Z,81.70
2018-03-06T23:48:22.634Z,81.82
2018-03-06T23:50:50.039Z,81.71
2018-03-06T23:53:17.462Z,81.77
2018-03-06T23:55:44.981Z,82.17
2018-03-06T23:58:12.397Z,82.23
